Washington, District of Columbia
Traffic Map
Current Weather Conditions
Washington, District of Columbia
Broken Clouds
Broken Clouds
28°
Feels Like: 31°
Wind Chill: 28° Ceiling: 25000
Heat Index: 31° Visibility: 10mi
Dew Point: 23° Wind: 3mph
Humidity: 76% Direction: 190° (S)
Pressure: 29.91in Gusts: 0mph
Raw Report DataKDCA 310252Z 19003KT 10SM BKN250 28/23 A2991 RMK AO2 SLP128 T02780233 51012
Traffic Incident Summary
Active as of:
Severity:
Category:
InformationThere was an issue retrieving the traffic information for this location. Please try a different location or try again shortly.
Advertisements
Track Severe Weather on mobile